Time;durP1;ratioP1;P1;durP2;ratioP2;P2;SDS_P1;SDS_P2;PMS_P1;PMS_P2;Temp;Humidity;BMP_temperature;BMP_pressure;BME280_temperature;BME280_humidity;BME280_pressure;Samples;Min_cycle;Max_cycle;Signal;HPM_P1;HPM_P2
2022/04/05 00:01:29;;;;;;;8.13;2.63;;;7.70;99.90;;;;;;4999495;28;20406;-70
2022/04/05 00:03:55;;;;;;;9.15;2.50;;;7.70;99.90;;;;;;5013584;28;20046;-71
2022/04/05 00:06:22;;;;;;;11.27;2.35;;;7.70;99.90;;;;;;5018166;28;20049;-72
2022/04/05 00:08:48;;;;;;;13.88;2.58;;;7.60;99.90;;;;;;5014633;28;20050;-72
2022/04/05 00:11:14;;;;;;;7.50;2.00;;;7.60;99.90;;;;;;4978687;28;20084;-70
2022/04/05 00:13:40;;;;;;;9.63;2.20;;;7.70;99.90;;;;;;5008438;28;20073;-70
2022/04/05 00:16:06;;;;;;;11.90;2.25;;;7.60;99.90;;;;;;4998131;28;20140;-71
2022/04/05 00:18:32;;;;;;;12.07;2.70;;;7.60;99.90;;;;;;5013063;28;20100;-72
2022/04/05 00:20:58;;;;;;;12.05;2.25;;;7.60;99.90;;;;;;5022009;28;20045;-71
2022/04/05 00:23:24;;;;;;;7.05;1.75;;;7.60;99.90;;;;;;5019906;28;20114;-71
2022/04/05 00:25:50;;;;;;;16.88;2.50;;;7.60;99.90;;;;;;5012681;28;20121;-71
2022/04/05 00:28:17;;;;;;;10.25;2.00;;;7.60;99.90;;;;;;4995071;28;20133;-71
2022/04/05 00:30:43;;;;;;;14.85;2.42;;;7.60;99.90;;;;;;5022090;28;20049;-71
2022/04/05 00:33:09;;;;;;;16.83;3.17;;;7.60;99.90;;;;;;5012097;28;20042;-71
2022/04/05 00:35:35;;;;;;;15.43;2.50;;;7.60;99.90;;;;;;5009091;28;20092;-72
2022/04/05 00:38:01;;;;;;;14.15;2.30;;;7.60;99.90;;;;;;5014899;28;20456;-71
2022/04/05 00:40:28;;;;;;;9.88;2.35;;;7.50;99.90;;;;;;5012411;28;20411;-71
2022/04/05 00:42:54;;;;;;;18.27;2.40;;;7.50;99.90;;;;;;5014930;28;20068;-70
2022/04/05 00:45:21;;;;;;;14.60;2.47;;;7.50;99.90;;;;;;5017979;28;20495;-71
2022/04/05 00:47:50;;;;;;;14.90;2.15;;;7.50;99.90;;;;;;4998711;28;20431;-70
2022/04/05 00:50:20;;;;;;;14.85;2.63;;;7.50;99.90;;;;;;5010503;28;20145;-70
2022/04/05 00:52:47;;;;;;;19.48;2.60;;;7.50;99.90;;;;;;5009110;28;20124;-71
2022/04/05 00:55:19;;;;;;;19.25;2.47;;;7.50;99.90;;;;;;5010437;28;20046;-71
2022/04/05 00:57:46;;;;;;;24.88;2.55;;;7.50;99.90;;;;;;5018163;28;20122;-71
2022/04/05 01:00:14;;;;;;;23.25;2.78;;;7.50;99.90;;;;;;4994742;28;20050;-71
2022/04/05 01:02:40;;;;;;;11.93;2.30;;;7.50;99.90;;;;;;5015367;28;20499;-71
2022/04/05 01:05:07;;;;;;;18.60;2.42;;;7.40;99.90;;;;;;5002836;28;20034;-70
2022/04/05 01:07:34;;;;;;;18.10;2.30;;;7.50;99.90;;;;;;4999995;28;20045;-70
2022/04/05 01:10:00;;;;;;;21.77;2.85;;;7.50;99.90;;;;;;5011128;28;20406;-71
2022/04/05 01:12:26;;;;;;;17.30;2.38;;;7.40;99.90;;;;;;4999854;28;20057;-71
2022/04/05 01:14:52;;;;;;;11.57;2.70;;;7.40;99.90;;;;;;5016755;28;20095;-71
2022/04/05 01:17:19;;;;;;;20.92;2.30;;;7.40;99.90;;;;;;5021213;28;20085;-71
2022/04/05 01:19:49;;;;;;;16.88;2.63;;;7.40;99.90;;;;;;5016807;28;20045;-70
2022/04/05 01:22:15;;;;;;;25.48;2.83;;;7.40;99.90;;;;;;5003733;28;20041;-70
2022/04/05 01:24:41;;;;;;;19.08;2.45;;;7.40;99.90;;;;;;5006827;28;20509;-70
2022/04/05 01:27:07;;;;;;;17.88;2.15;;;7.40;99.90;;;;;;4996102;28;20060;-71
2022/04/05 01:29:34;;;;;;;16.02;2.03;;;7.30;99.90;;;;;;5015092;28;20556;-70
2022/04/05 01:32:03;;;;;;;14.13;2.33;;;7.40;99.90;;;;;;4994024;28;20426;-71
2022/04/05 01:34:32;;;;;;;15.80;1.90;;;7.40;99.90;;;;;;5025496;28;20395;-70
2022/04/05 01:37:00;;;;;;;18.75;1.83;;;7.30;99.90;;;;;;5011652;28;20050;-71
2022/04/05 01:39:30;;;;;;;14.25;1.95;;;7.30;99.90;;;;;;5012153;28;20038;-71
2022/04/05 01:42:00;;;;;;;18.65;2.53;;;7.30;99.90;;;;;;5012262;28;20050;-70
2022/04/05 01:44:27;;;;;;;16.65;2.38;;;7.30;99.90;;;;;;5010019;28;20053;-72
2022/04/05 01:46:53;;;;;;;13.68;2.10;;;7.30;99.90;;;;;;4995532;28;20052;-70
2022/04/05 01:49:20;;;;;;;22.70;2.35;;;7.20;99.90;;;;;;5012134;28;20380;-70
2022/04/05 01:51:47;;;;;;;18.00;2.47;;;7.20;99.90;;;;;;5012095;28;20410;-70
2022/04/05 01:54:16;;;;;;;17.20;2.08;;;7.20;99.90;;;;;;5009610;28;20034;-70
2022/04/05 01:56:42;;;;;;;17.80;2.05;;;7.20;99.90;;;;;;4994640;28;20054;-71
2022/04/05 01:59:09;;;;;;;13.30;2.20;;;7.40;99.90;;;;;;5012827;28;20049;-71
2022/04/05 02:01:35;;;;;;;16.05;1.92;;;7.20;99.90;;;;;;5011338;28;20054;-70
2022/04/05 02:04:01;;;;;;;20.60;2.28;;;7.20;99.90;;;;;;4995158;28;20057;-70
2022/04/05 02:06:27;;;;;;;22.80;2.22;;;7.10;99.90;;;;;;4985798;28;20489;-71
2022/04/05 02:08:53;;;;;;;14.82;1.90;;;7.10;99.90;;;;;;4994305;28;20049;-71
2022/04/05 02:11:19;;;;;;;18.67;2.20;;;7.10;99.90;;;;;;4995123;28;20179;-70
2022/04/05 02:13:45;;;;;;;16.92;2.10;;;7.10;99.90;;;;;;5011536;28;20045;-71
2022/04/05 02:16:11;;;;;;;20.20;2.40;;;7.10;99.90;;;;;;5010708;28;20049;-70
2022/04/05 02:18:37;;;;;;;18.90;2.28;;;7.10;99.90;;;;;;5011357;28;20127;-70
2022/04/05 02:21:03;;;;;;;15.75;2.00;;;7.00;99.90;;;;;;5011346;28;20560;-72
2022/04/05 02:23:29;;;;;;;18.50;2.08;;;7.00;99.90;;;;;;5011239;28;20058;-70
2022/04/05 02:25:55;;;;;;;16.85;2.28;;;7.00;99.90;;;;;;4978966;28;20038;-72
2022/04/05 02:28:21;;;;;;;16.27;1.85;;;6.90;99.90;;;;;;4994806;28;20054;-72
2022/04/05 02:30:47;;;;;;;14.25;2.10;;;6.90;99.90;;;;;;4994450;28;20060;-69
2022/04/05 02:33:13;;;;;;;10.90;1.60;;;6.80;99.90;;;;;;5011145;28;20042;-70
2022/04/05 02:35:38;;;;;;;13.98;2.53;;;6.80;99.90;;;;;;4994918;28;20136;-72
2022/04/05 02:38:04;;;;;;;10.07;1.70;;;6.80;99.90;;;;;;5010347;28;20455;-71
2022/04/05 02:40:30;;;;;;;9.25;1.85;;;6.80;99.90;;;;;;5011179;28;20104;-70
2022/04/05 02:42:57;;;;;;;11.30;1.63;;;6.70;99.90;;;;;;5011660;28;20054;-72
2022/04/05 02:45:23;;;;;;;18.33;2.03;;;6.70;99.90;;;;;;5010832;28;20058;-70
2022/04/05 02:47:49;;;;;;;12.35;1.70;;;6.70;99.90;;;;;;4994060;28;20058;-70
2022/04/05 02:50:17;;;;;;;16.33;1.80;;;6.70;99.90;;;;;;5011082;28;20052;-70
2022/04/05 02:52:47;;;;;;;16.55;1.73;;;6.70;99.90;;;;;;5010745;28;20534;-70
2022/04/05 02:55:14;;;;;;;14.15;1.75;;;6.70;99.90;;;;;;4978203;28;20042;-70
2022/04/05 02:57:41;;;;;;;13.63;1.65;;;6.70;99.90;;;;;;4991954;28;20046;-70
2022/04/05 03:00:11;;;;;;;14.80;1.88;;;6.60;99.90;;;;;;5010339;28;20046;-70
2022/04/05 03:02:37;;;;;;;13.63;1.70;;;6.60;99.90;;;;;;4994211;28;20041;-71
2022/04/05 03:05:07;;;;;;;16.67;2.00;;;6.60;99.90;;;;;;5010298;28;20041;-71
2022/04/05 03:07:34;;;;;;;15.15;1.75;;;6.60;99.90;;;;;;4992670;28;20050;-70
2022/04/05 03:10:01;;;;;;;15.85;1.83;;;6.60;99.90;;;;;;4994247;28;20121;-70
2022/04/05 03:12:27;;;;;;;16.42;1.85;;;6.60;99.90;;;;;;5010084;28;20050;-71
2022/04/05 03:14:53;;;;;;;14.88;1.88;;;6.60;99.90;;;;;;5010164;28;20050;-71
2022/04/05 03:17:19;;;;;;;18.17;2.15;;;6.50;99.90;;;;;;5007682;28;20066;-70
2022/04/05 03:19:45;;;;;;;12.35;1.60;;;6.50;99.90;;;;;;5010438;28;20041;-70
2022/04/05 03:22:11;;;;;;;12.75;1.80;;;6.50;99.90;;;;;;5007625;28;20489;-70
2022/04/05 03:24:37;;;;;;;16.48;1.58;;;6.50;99.90;;;;;;5009833;28;20045;-70
2022/04/05 03:27:04;;;;;;;10.68;1.45;;;6.50;99.90;;;;;;5007321;28;20049;-71
2022/04/05 03:29:30;;;;;;;12.70;1.30;;;6.50;99.90;;;;;;5011274;28;20045;-71
2022/04/05 03:31:56;;;;;;;19.42;1.50;;;6.50;99.90;;;;;;5010218;28;20060;-70
2022/04/05 03:34:22;;;;;;;13.27;2.00;;;6.50;99.90;;;;;;5010140;28;20042;-71
2022/04/05 03:36:48;;;;;;;14.93;1.95;;;6.50;99.90;;;;;;4993346;28;20045;-71
2022/04/05 03:39:14;;;;;;;11.00;1.67;;;6.50;99.90;;;;;;5009972;28;20080;-70
2022/04/05 03:41:41;;;;;;;14.60;2.00;;;6.50;99.90;;;;;;5009526;28;20096;-70
2022/04/05 03:44:07;;;;;;;12.50;1.65;;;6.50;99.90;;;;;;4977319;28;20050;-70
2022/04/05 03:46:33;;;;;;;14.77;2.13;;;6.40;99.90;;;;;;5009010;28;20387;-72
2022/04/05 03:48:59;;;;;;;17.70;2.22;;;6.40;99.90;;;;;;5009765;28;20196;-70
2022/04/05 03:51:25;;;;;;;21.42;2.03;;;6.40;99.90;;;;;;4975860;28;20396;-70
2022/04/05 03:53:51;;;;;;;22.77;2.33;;;6.40;99.90;;;;;;5009778;28;20061;-72
2022/04/05 03:56:19;;;;;;;15.40;2.45;;;6.40;99.90;;;;;;5010651;28;20053;-70
2022/04/05 03:58:44;;;;;;;12.68;1.70;;;6.40;99.90;;;;;;5011060;28;20403;-70
2022/04/05 04:01:10;;;;;;;21.73;2.40;;;6.40;99.90;;;;;;5010568;28;20056;-70
2022/04/05 04:03:36;;;;;;;18.50;1.80;;;6.40;99.90;;;;;;4994250;28;20135;-70
2022/04/05 04:06:02;;;;;;;14.10;1.98;;;6.70;99.90;;;;;;4978044;28;20065;-70
2022/04/05 04:08:28;;;;;;;11.27;1.70;;;6.40;99.90;;;;;;5010422;28;20384;-70
2022/04/05 04:10:54;;;;;;;23.13;3.20;;;6.40;99.90;;;;;;5010540;28;20475;-70
2022/04/05 04:13:20;;;;;;;20.20;2.97;;;6.40;99.90;;;;;;5010646;28;20564;-71
2022/04/05 04:15:46;;;;;;;20.73;2.40;;;6.50;99.90;;;;;;4993851;28;20046;-72
2022/04/05 04:18:12;;;;;;;17.30;2.88;;;6.50;99.90;;;;;;4993928;28;20057;-70
2022/04/05 04:20:39;;;;;;;20.13;2.20;;;6.50;99.90;;;;;;5010284;28;20061;-71
2022/04/05 04:23:05;;;;;;;15.55;2.30;;;6.50;99.90;;;;;;4993471;28;20057;-70
2022/04/05 04:25:31;;;;;;;13.48;2.03;;;6.50;99.90;;;;;;4991314;28;20182;-70
2022/04/05 04:27:58;;;;;;;14.13;1.75;;;6.50;99.90;;;;;;5005323;28;20045;-72
2022/04/05 04:30:24;;;;;;;18.50;2.33;;;6.50;99.90;;;;;;4994285;28;20128;-70
2022/04/05 04:32:50;;;;;;;12.82;1.48;;;6.60;99.90;;;;;;5012465;28;20052;-72
2022/04/05 04:35:16;;;;;;;11.55;1.50;;;6.50;99.90;;;;;;4994664;28;20181;-71
2022/04/05 04:37:42;;;;;;;12.40;1.63;;;6.60;99.90;;;;;;4995154;28;20069;-70
2022/04/05 04:40:08;;;;;;;15.77;1.75;;;6.60;99.90;;;;;;4998017;28;20448;-72
2022/04/05 04:42:34;;;;;;;11.90;1.60;;;6.50;99.90;;;;;;5013655;28;20132;-71
2022/04/05 04:45:01;;;;;;;17.55;1.83;;;6.50;99.90;;;;;;5013590;28;20145;-71
2022/04/05 04:47:27;;;;;;;7.97;1.50;;;6.50;99.90;;;;;;5013730;28;20042;-71
2022/04/05 04:49:53;;;;;;;27.75;2.47;;;6.50;99.90;;;;;;5013763;28;20050;-72
2022/04/05 04:52:19;;;;;;;16.52;2.28;;;6.50;99.90;;;;;;5013486;28;20050;-70
2022/04/05 04:54:44;;;;;;;17.05;1.73;;;6.50;99.90;;;;;;5014255;28;20128;-70
2022/04/05 04:57:10;;;;;;;17.75;2.08;;;6.50;99.90;;;;;;5014410;28;20046;-70
2022/04/05 04:59:36;;;;;;;18.48;1.80;;;6.50;99.90;;;;;;5014703;28;20054;-70
2022/04/05 05:02:02;;;;;;;18.90;1.77;;;6.50;99.90;;;;;;4980240;28;20128;-70
2022/04/05 05:04:29;;;;;;;17.42;1.98;;;6.50;99.90;;;;;;4999410;28;20133;-72
2022/04/05 05:06:54;;;;;;;17.17;1.92;;;6.50;99.90;;;;;;5011053;28;20494;-70
2022/04/05 05:09:20;;;;;;;18.92;1.77;;;6.50;99.90;;;;;;4997498;28;20064;-70
2022/04/05 05:11:46;;;;;;;11.57;2.25;;;6.60;99.90;;;;;;5014992;28;20050;-70
2022/04/05 05:14:12;;;;;;;11.57;1.77;;;6.60;99.90;;;;;;5017999;28;20495;-70
2022/04/05 05:16:38;;;;;;;18.80;2.17;;;6.60;99.90;;;;;;4997228;28;20054;-70
2022/04/05 05:19:07;;;;;;;14.60;1.60;;;6.60;99.90;;;;;;5001670;28;20075;-72
2022/04/05 05:21:33;;;;;;;10.40;2.15;;;6.60;99.90;;;;;;5013118;28;20128;-71
2022/04/05 05:23:59;;;;;;;10.20;1.70;;;6.60;99.90;;;;;;5010193;28;20108;-70
2022/04/05 05:26:25;;;;;;;16.88;1.88;;;6.60;99.90;;;;;;4995512;28;20046;-70
2022/04/05 05:28:51;;;;;;;11.80;1.58;;;6.70;99.90;;;;;;5012539;28;20042;-72
2022/04/05 05:31:17;;;;;;;14.57;2.40;;;6.70;99.90;;;;;;4995289;28;20111;-70
2022/04/05 05:33:43;;;;;;;14.05;2.28;;;6.60;99.90;;;;;;4982476;28;20045;-71
2022/04/05 05:36:09;;;;;;;11.75;1.67;;;6.60;99.90;;;;;;5026874;28;20060;-71
2022/04/05 05:38:35;;;;;;;17.73;2.78;;;6.40;99.90;;;;;;4996616;28;20054;-71
2022/04/05 05:41:01;;;;;;;13.75;2.10;;;6.70;99.90;;;;;;5001373;28;20101;-70
2022/04/05 05:43:27;;;;;;;13.45;1.95;;;6.70;99.90;;;;;;5016337;28;20084;-70
2022/04/05 05:45:52;;;;;;;20.27;2.35;;;6.70;99.90;;;;;;5006936;28;20090;-70
2022/04/05 05:48:19;;;;;;;14.82;2.13;;;6.70;99.90;;;;;;4972536;28;20062;-72
2022/04/05 05:50:45;;;;;;;11.43;2.08;;;6.80;99.90;;;;;;5011390;28;20050;-70
2022/04/05 05:53:11;;;;;;;12.73;1.85;;;6.80;99.90;;;;;;4996037;28;20479;-71
2022/04/05 05:55:37;;;;;;;17.38;3.15;;;6.80;99.90;;;;;;5011383;28;21314;-71
2022/04/05 05:58:03;;;;;;;18.80;2.22;;;6.90;99.90;;;;;;5012004;28;20076;-71
2022/04/05 06:00:29;;;;;;;16.05;1.73;;;6.90;99.90;;;;;;4994933;28;20526;-71
2022/04/05 06:03:00;;;;;;;18.83;1.90;;;6.90;99.90;;;;;;5011479;28;20129;-71
2022/04/05 06:05:26;;;;;;;15.13;2.33;;;7.00;99.90;;;;;;4995389;28;20037;-71
2022/04/05 06:07:52;;;;;;;16.05;2.10;;;7.00;99.90;;;;;;4994952;28;20071;-72
2022/04/05 06:10:19;;;;;;;17.20;1.98;;;7.30;99.90;;;;;;4992077;28;20050;-70
2022/04/05 06:12:48;;;;;;;19.73;2.95;;;7.10;99.90;;;;;;4995694;28;20054;-69
2022/04/05 06:15:15;;;;;;;13.38;2.33;;;7.10;99.90;;;;;;4994875;28;20038;-70
2022/04/05 06:17:46;;;;;;;13.45;2.45;;;7.10;99.90;;;;;;5011176;28;20620;-70
2022/04/05 06:20:14;;;;;;;12.40;2.50;;;7.20;99.90;;;;;;5009599;28;20225;-70
2022/04/05 06:22:48;;;;;;;20.48;2.00;;;7.20;99.90;;;;;;5018785;28;20672;-70
2022/04/05 06:25:36;;;;;;;24.27;13.52;;;7.20;99.90;;;;;;5011123;28;20053;-71
2022/04/05 06:28:07;;;;;;;15.75;4.22;;;7.30;99.90;;;;;;5011391;28;20052;-70
2022/04/05 06:30:34;;;;;;;17.52;2.75;;;7.30;99.90;;;;;;4994398;28;20038;-70
2022/04/05 06:33:09;;;;;;;17.17;2.85;;;7.40;99.90;;;;;;5011317;28;20053;-70
2022/04/05 06:35:40;;;;;;;17.27;3.28;;;7.40;99.90;;;;;;4992651;28;20104;-71
2022/04/05 06:38:06;;;;;;;21.20;3.00;;;7.40;99.90;;;;;;5009804;28;20081;-70
2022/04/05 06:40:33;;;;;;;20.77;2.60;;;7.40;99.90;;;;;;5009806;28;20042;-70
2022/04/05 06:42:59;;;;;;;16.80;2.65;;;7.50;99.90;;;;;;4995489;28;20053;-69
2022/04/05 06:45:25;;;;;;;11.85;2.05;;;7.50;99.90;;;;;;5011011;28;20058;-70
2022/04/05 06:47:52;;;;;;;18.30;2.70;;;7.50;99.90;;;;;;5010912;28;20033;-72
2022/04/05 06:50:24;;;;;;;23.00;2.40;;;7.50;99.90;;;;;;5010730;28;20093;-70
2022/04/05 06:52:52;;;;;;;19.27;2.53;;;7.50;99.90;;;;;;5010345;28;20063;-70
2022/04/05 06:55:18;;;;;;;17.80;2.13;;;7.50;99.90;;;;;;4992505;28;20234;-72
2022/04/05 06:57:44;;;;;;;13.73;2.15;;;7.60;99.90;;;;;;5010251;28;20148;-70
2022/04/05 07:00:12;;;;;;;18.13;2.08;;;7.60;99.90;;;;;;4993994;28;20386;-70
2022/04/05 07:02:39;;;;;;;20.95;7.55;;;7.60;99.90;;;;;;4994052;28;20494;-73
2022/04/05 07:05:06;;;;;;;21.27;3.53;;;7.70;99.90;;;;;;5010671;28;20046;-70
2022/04/05 07:07:32;;;;;;;16.65;2.28;;;7.80;99.90;;;;;;4993696;28;20085;-70
2022/04/05 07:09:58;;;;;;;17.17;2.38;;;7.80;99.90;;;;;;5009537;28;20181;-72
2022/04/05 07:12:24;;;;;;;11.77;2.65;;;7.80;99.90;;;;;;5015744;28;20528;-70
2022/04/05 07:14:53;;;;;;;14.00;2.63;;;7.90;99.90;;;;;;5012506;28;20120;-70
2022/04/05 07:17:19;;;;;;;12.70;2.42;;;7.90;99.90;;;;;;5011453;28;20042;-70
2022/04/05 07:19:45;;;;;;;13.38;2.50;;;7.90;99.90;;;;;;4995125;28;20065;-70
2022/04/05 07:22:11;;;;;;;20.15;2.58;;;8.00;99.90;;;;;;4976526;28;20050;-70
2022/04/05 07:24:37;;;;;;;11.55;1.83;;;8.00;99.90;;;;;;4998312;28;20108;-70
2022/04/05 07:27:03;;;;;;;15.73;2.88;;;8.00;99.90;;;;;;4980787;28;20124;-70
2022/04/05 07:29:29;;;;;;;16.10;2.22;;;8.00;99.90;;;;;;5000100;28;20514;-70
2022/04/05 07:31:55;;;;;;;17.58;3.38;;;8.10;99.90;;;;;;4996182;28;20056;-70
2022/04/05 07:34:21;;;;;;;16.80;3.22;;;8.10;99.90;;;;;;5012704;28;20042;-71
2022/04/05 07:36:47;;;;;;;14.38;2.17;;;8.20;99.90;;;;;;5010637;28;20046;-70
2022/04/05 07:39:13;;;;;;;13.18;2.35;;;8.20;99.90;;;;;;5008823;28;20061;-70
2022/04/05 07:41:39;;;;;;;17.40;2.63;;;8.30;99.90;;;;;;4996671;28;20046;-70
2022/04/05 07:44:05;;;;;;;12.00;2.55;;;8.20;99.90;;;;;;4992291;28;20046;-70
2022/04/05 07:46:31;;;;;;;13.93;2.33;;;8.20;99.90;;;;;;4994579;28;20392;-70
2022/04/05 07:48:57;;;;;;;15.88;2.72;;;8.20;99.90;;;;;;4994977;28;20060;-70
2022/04/05 07:51:23;;;;;;;14.85;2.50;;;8.20;99.90;;;;;;5012346;28;20045;-70
2022/04/05 07:53:49;;;;;;;9.43;1.60;;;8.10;99.90;;;;;;5002218;28;20057;-70
2022/04/05 07:56:15;;;;;;;12.18;2.58;;;8.20;99.90;;;;;;5008527;28;20420;-70
2022/04/05 07:58:42;;;;;;;9.20;2.10;;;8.20;99.90;;;;;;5007415;28;20841;-70
2022/04/05 08:01:09;;;;;;;13.32;2.67;;;8.20;99.90;;;;;;5021726;28;20053;-70
2022/04/05 08:03:36;;;;;;;10.48;1.80;;;8.50;99.90;;;;;;4989571;28;20058;-69
2022/04/05 08:06:03;;;;;;;15.40;2.25;;;8.20;99.90;;;;;;5014713;28;20037;-70
2022/04/05 08:08:29;;;;;;;13.25;2.38;;;8.20;99.90;;;;;;5009948;28;20072;-70
2022/04/05 08:10:56;;;;;;;11.55;2.30;;;8.30;99.90;;;;;;5011086;28;20080;-69
2022/04/05 08:13:22;;;;;;;17.45;2.65;;;8.30;99.90;;;;;;5009676;28;20681;-73
2022/04/05 08:15:49;;;;;;;11.52;2.03;;;8.20;99.90;;;;;;5001622;28;20058;-71
2022/04/05 08:18:15;;;;;;;14.48;2.80;;;8.20;99.90;;;;;;5009618;28;20038;-71
2022/04/05 08:20:41;;;;;;;9.88;2.40;;;8.20;99.90;;;;;;5008877;28;20518;-72
2022/04/05 08:23:10;;;;;;;11.63;2.45;;;8.20;99.90;;;;;;5009396;28;20041;-70
2022/04/05 08:25:36;;;;;;;15.05;3.00;;;8.20;99.90;;;;;;5008764;28;20068;-70
2022/04/05 08:28:03;;;;;;;15.85;2.72;;;8.30;99.90;;;;;;5009335;28;20046;-70
2022/04/05 08:30:29;;;;;;;10.63;2.70;;;8.30;99.90;;;;;;4975966;28;20042;-73
2022/04/05 08:32:55;;;;;;;10.65;2.28;;;8.30;99.90;;;;;;4993534;28;20050;-73
2022/04/05 08:35:22;;;;;;;12.32;3.95;;;8.40;99.90;;;;;;5008641;28;21047;-74
2022/04/05 08:37:50;;;;;;;8.00;2.10;;;8.40;99.90;;;;;;5009378;28;20037;-73
2022/04/05 08:40:18;;;;;;;14.65;3.53;;;8.30;99.90;;;;;;5009489;28;20143;-73
2022/04/05 08:42:47;;;;;;;8.45;2.33;;;8.40;99.90;;;;;;5008855;28;20038;-72
2022/04/05 08:45:15;;;;;;;17.25;2.97;;;8.50;99.90;;;;;;4992769;28;20449;-73
2022/04/05 08:47:51;;;;;;;11.05;3.28;;;8.50;99.90;;;;;;4992641;28;20743;-72
2022/04/05 08:50:20;;;;;;;12.05;2.72;;;8.50;99.90;;;;;;4992669;28;20080;-71
2022/04/05 08:52:48;;;;;;;15.85;2.95;;;8.60;99.90;;;;;;5008877;28;20058;-73
2022/04/05 08:55:15;;;;;;;13.35;3.10;;;8.60;99.90;;;;;;5008926;28;20042;-73
2022/04/05 08:57:42;;;;;;;12.07;2.95;;;8.70;99.90;;;;;;4992547;28;20041;-74
2022/04/05 09:00:10;;;;;;;10.85;2.28;;;8.70;99.90;;;;;;4993420;28;20068;-72
2022/04/05 09:02:36;;;;;;;11.60;2.58;;;8.70;99.90;;;;;;5009164;28;20041;-74
2022/04/05 09:05:03;;;;;;;8.70;2.67;;;8.80;99.90;;;;;;5010216;28;20136;-75
2022/04/05 09:07:35;;;;;;;9.48;4.93;;;8.90;99.90;;;;;;5009521;28;20050;-75
2022/04/05 09:10:12;;;;;;;10.40;2.50;;;9.00;99.90;;;;;;5010551;28;20046;-77
2022/04/05 09:12:46;;;;;;;13.93;2.60;;;9.00;99.90;;;;;;4993258;28;20141;-77
2022/04/05 09:15:35;;;;;;;10.73;2.80;;;8.80;99.90;;;;;;4964755;28;20042;-74
2022/04/05 09:18:01;;;;;;;12.65;3.00;;;9.20;99.90;;;;;;5009608;28;20091;-71
2022/04/05 09:20:27;;;;;;;11.32;3.03;;;9.40;99.90;;;;;;5010395;28;20042;-77
2022/04/05 09:22:54;;;;;;;8.55;2.40;;;9.50;99.90;;;;;;4994280;28;20360;-75
2022/04/05 09:25:20;;;;;;;12.88;2.63;;;9.50;99.90;;;;;;4995265;28;20490;-74
2022/04/05 09:27:55;;;;;;;12.13;2.65;;;9.50;99.90;;;;;;5011583;28;20188;-70
2022/04/05 09:30:31;;;;;;;9.45;2.85;;;9.40;99.90;;;;;;4995959;28;20046;-70
2022/04/05 09:32:57;;;;;;;6.78;2.55;;;9.30;99.90;;;;;;4994818;28;20457;-71
2022/04/05 09:35:40;;;;;;;10.32;2.60;;;9.30;99.90;;;;;;5010578;28;20176;-70
2022/04/05 09:38:17;;;;;;;12.98;2.63;;;9.20;99.90;;;;;;5010279;28;20050;-71
2022/04/05 09:40:43;;;;;;;10.57;2.65;;;9.20;99.90;;;;;;4997322;28;20042;-70
2022/04/05 09:43:13;;;;;;;10.82;3.20;;;9.40;99.90;;;;;;5017389;28;20514;-72
2022/04/05 09:46:00;;;;;;;10.70;3.10;;;9.30;99.90;;;;;;5009551;28;20058;-70
2022/04/05 09:48:29;;;;;;;15.13;3.60;;;9.20;99.90;;;;;;5014608;28;20049;-70
2022/04/05 09:51:05;;;;;;;10.48;2.78;;;9.10;99.90;;;;;;5013059;28;20128;-70
2022/04/05 09:53:41;;;;;;;8.52;2.70;;;8.90;99.90;;;;;;4996177;28;20049;-71
2022/04/05 09:56:11;;;;;;;10.00;3.33;;;9.00;99.90;;;;;;5011367;28;20088;-70
2022/04/05 09:58:52;;;;;;;13.63;3.38;;;9.10;99.90;;;;;;5011906;28;20135;-70
2022/04/05 10:01:19;;;;;;;11.88;3.10;;;9.30;99.90;;;;;;4990670;28;20141;-70
2022/04/05 10:04:05;;;;;;;10.45;3.17;;;9.30;99.90;;;;;;5008302;28;20068;-73
2022/04/05 10:06:32;;;;;;;11.55;3.00;;;9.10;99.90;;;;;;5018064;28;20048;-70
2022/04/05 10:09:00;;;;;;;10.38;3.20;;;9.10;99.90;;;;;;4988647;28;20125;-70
2022/04/05 10:11:32;;;;;;;12.85;2.65;;;9.10;99.90;;;;;;4985227;28;20495;-71
2022/04/05 10:13:59;;;;;;;8.13;2.65;;;9.10;99.90;;;;;;4999294;28;20061;-70
2022/04/05 10:16:29;;;;;;;9.85;2.85;;;9.10;99.90;;;;;;4996759;28;20080;-71
2022/04/05 10:19:04;;;;;;;14.85;3.28;;;9.10;99.90;;;;;;4988162;28;20045;-70
2022/04/05 10:21:36;;;;;;;10.43;3.38;;;9.00;99.90;;;;;;4981451;28;20180;-76
2022/04/05 10:24:02;;;;;;;;;;;9.00;99.90;;;;;;5008982;28;20045;-75
2022/04/05 10:26:31;;;;;;;4.65;2.60;;;9.10;99.90;;;;;;5010525;28;19921;-77
2022/04/05 10:28:58;;;;;;;11.38;2.80;;;8.90;99.90;;;;;;5008554;28;20046;-77
2022/04/05 10:31:36;;;;;;;9.95;3.08;;;8.80;99.90;;;;;;4978718;28;20430;-76
2022/04/05 10:34:30;;;;;;;11.23;2.70;;;8.90;99.90;;;;;;4995257;28;20093;-73
2022/04/05 10:37:05;;;;;;;7.78;2.90;;;8.90;99.90;;;;;;5026424;28;20046;-74
2022/04/05 10:39:32;;;;;;;10.57;2.55;;;8.60;99.90;;;;;;5011302;28;20042;-76
2022/04/05 10:42:11;;;;;;;6.15;2.78;;;9.10;99.90;;;;;;5009903;28;20053;-70
2022/04/05 10:44:39;;;;;;;9.10;2.90;;;9.10;99.90;;;;;;4994382;28;20053;-70
2022/04/05 10:47:07;;;;;;;10.10;2.83;;;9.00;99.90;;;;;;5002397;28;20438;-70
2022/04/05 10:49:39;;;;;;;4.55;2.55;;;9.10;99.90;;;;;;4994107;28;20050;-71
2022/04/05 10:52:15;;;;;;;7.68;2.50;;;9.00;99.90;;;;;;4997307;28;20056;-75
2022/04/05 10:54:42;;;;;;;4.22;2.15;;;9.00;99.90;;;;;;5002771;28;20043;-73
2022/04/05 10:57:36;;;;;;;7.03;2.33;;;9.10;99.90;;;;;;5005860;28;20454;-73
2022/04/05 11:00:11;;;;;;;5.15;2.40;;;9.30;99.90;;;;;;5004923;28;20057;-75
2022/04/05 11:02:42;;;;;;;3.92;1.90;;;9.40;99.90;;;;;;5006009;28;20126;-75
2022/04/05 11:05:14;;;;;;;3.65;2.30;;;9.40;99.90;;;;;;4994714;28;20087;-73
2022/04/05 11:07:51;;;;;;;5.20;2.25;;;9.50;99.90;;;;;;5012728;28;20081;-76
2022/04/05 11:10:36;;;;;;;3.80;1.70;;;9.80;99.90;;;;;;5011923;28;20096;-71
2022/04/05 11:13:09;;;;;;;3.30;1.90;;;9.70;99.90;;;;;;5011788;28;20056;-71
2022/04/05 11:15:46;;;;;;;2.90;1.45;;;9.80;99.90;;;;;;5003327;28;20058;-72
2022/04/05 11:18:20;;;;;;;5.38;1.90;;;9.80;99.90;;;;;;5008796;28;20382;-72
2022/04/05 11:20:47;;;;;;;3.13;1.92;;;9.60;99.90;;;;;;4976997;28;20056;-71
2022/04/05 11:23:15;;;;;;;3.22;1.60;;;9.70;99.90;;;;;;5010224;28;20096;-70
2022/04/05 11:25:42;;;;;;;4.53;2.33;;;9.80;99.90;;;;;;4976289;28;20073;-69
2022/04/05 11:28:44;;;;;;;3.33;2.13;;;9.80;99.90;;;;;;5010222;28;20074;-70
2022/04/05 11:31:10;;;;;;;4.40;1.88;;;9.90;99.90;;;;;;4993641;28;20076;-72
2022/04/05 11:33:39;;;;;;;3.90;1.95;;;9.50;99.90;;;;;;4993984;28;20042;-71
2022/04/05 11:36:14;;;;;;;3.20;2.35;;;9.80;99.90;;;;;;5010650;28;20083;-72
2022/04/05 11:38:47;;;;;;;2.45;2.00;;;9.80;99.90;;;;;;4994471;28;20077;-72
2022/04/05 11:41:21;;;;;;;3.47;2.00;;;9.80;99.90;;;;;;5010637;28;20053;-73
2022/04/05 11:43:50;;;;;;;3.85;2.10;;;9.80;99.90;;;;;;5010990;28;20081;-71
2022/04/05 11:46:43;;;;;;;3.45;1.80;;;9.80;99.90;;;;;;5010165;28;20589;-72
2022/04/05 11:49:16;;;;;;;3.85;2.17;;;9.80;99.90;;;;;;4988634;28;20120;-72
2022/04/05 11:51:47;;;;;;;3.90;2.08;;;9.90;99.90;;;;;;5011114;28;20184;-71
2022/04/05 11:54:24;;;;;;;3.97;2.15;;;9.80;99.90;;;;;;5007423;28;20065;-72
2022/04/05 11:56:50;;;;;;;3.40;1.92;;;9.80;99.90;;;;;;5004094;28;20405;-71
2022/04/05 11:59:18;;;;;;;3.40;2.13;;;9.90;99.90;;;;;;5005843;28;20080;-71
2022/04/05 12:01:49;;;;;;;3.25;2.47;;;10.20;99.90;;;;;;4994132;28;20049;-71
2022/04/05 12:04:22;;;;;;;5.18;2.30;;;10.40;99.90;;;;;;5013133;28;20046;-71
2022/04/05 12:06:58;;;;;;;3.65;2.20;;;10.50;99.90;;;;;;5010441;28;20065;-70
2022/04/05 12:09:26;;;;;;;3.95;2.40;;;10.50;99.90;;;;;;5011237;28;20121;-74
2022/04/05 12:11:52;;;;;;;4.15;3.72;;;10.80;99.90;;;;;;5009716;28;20446;-76
2022/04/05 12:14:22;;;;;;;3.63;2.47;;;10.80;99.90;;;;;;4993134;28;20077;-72
2022/04/05 12:16:53;;;;;;;2.67;1.83;;;10.80;99.90;;;;;;5009389;28;20108;-74
2022/04/05 12:19:37;;;;;;;3.65;2.50;;;10.80;99.90;;;;;;5009572;28;20049;-76
2022/04/05 12:22:08;;;;;;;2.70;2.25;;;10.50;99.90;;;;;;5009510;28;20441;-72
2022/04/05 12:24:54;;;;;;;2.05;1.85;;;10.40;99.90;;;;;;4992972;28;20046;-72
2022/04/05 12:27:22;;;;;;;3.65;2.05;;;10.40;99.90;;;;;;4984210;28;20081;-72
2022/04/05 12:29:48;;;;;;;5.53;2.40;;;10.30;99.90;;;;;;4996330;28;20506;-73
2022/04/05 12:32:14;;;;;;;3.95;2.22;;;11.00;99.90;;;;;;4994266;28;20483;-72
2022/04/05 12:34:41;;;;;;;4.75;2.50;;;10.60;99.90;;;;;;4993957;28;20479;-73
2022/04/05 12:37:14;;;;;;;3.65;2.30;;;10.80;99.90;;;;;;4993511;28;20046;-72
2022/04/05 12:39:54;;;;;;;2.75;2.00;;;11.00;99.90;;;;;;4993239;28;20454;-72
2022/04/05 12:42:20;;;;;;;3.53;2.45;;;11.20;99.90;;;;;;5008362;28;20395;-72
2022/04/05 12:44:55;;;;;;;2.33;2.13;;;11.30;99.90;;;;;;4975918;28;20048;-72
2022/04/05 12:47:22;;;;;;;3.10;2.13;;;11.30;99.90;;;;;;4992896;28;20057;-72
2022/04/05 12:49:50;;;;;;;3.63;2.40;;;11.30;99.90;;;;;;5009373;28;20053;-72
2022/04/05 12:52:19;;;;;;;3.47;2.35;;;11.30;99.90;;;;;;4993314;28;20050;-72
2022/04/05 12:54:53;;;;;;;3.13;2.35;;;11.30;99.90;;;;;;5017788;28;20129;-72